sensor_id;sensor_type;location;lat;lon;timestamp;P1;durP1;ratioP1;P2;durP2;ratioP2
70588;SDS011;58152;49.202;18.744;2023-04-15T00:20:36;0.60;;;0.60;;
70588;SDS011;58152;49.202;18.744;2023-04-15T00:23:12;0.75;;;0.60;;
70588;SDS011;58152;49.202;18.744;2023-04-15T00:26:10;0.60;;;0.60;;
70588;SDS011;58152;49.202;18.744;2023-04-15T00:40:18;0.50;;;0.50;;
70588;SDS011;58152;49.202;18.744;2023-04-15T00:43:14;0.60;;;0.60;;
70588;SDS011;58152;49.202;18.744;2023-04-15T00:45:44;90.88;;;55.63;;
70588;SDS011;58152;49.202;18.744;2023-04-15T00:48:11;66.38;;;42.03;;
70588;SDS011;58152;49.202;18.744;2023-04-15T00:57:00;19.55;;;12.60;;
70588;SDS011;58152;49.202;18.744;2023-04-15T00:59:37;6.18;;;4.35;;
70588;SDS011;58152;49.202;18.744;2023-04-15T01:02:04;2.28;;;1.70;;
70588;SDS011;58152;49.202;18.744;2023-04-15T01:04:29;1.08;;;0.98;;
70588;SDS011;58152;49.202;18.744;2023-04-15T01:06:57;0.80;;;0.80;;
70588;SDS011;58152;49.202;18.744;2023-04-15T01:09:34;0.70;;;0.70;;
70588;SDS011;58152;49.202;18.744;2023-04-15T01:22:16;0.57;;;0.57;;
70588;SDS011;58152;49.202;18.744;2023-04-15T01:28:17;0.70;;;0.70;;
70588;SDS011;58152;49.202;18.744;2023-04-15T01:30:42;0.70;;;0.70;;
70588;SDS011;58152;49.202;18.744;2023-04-15T01:33:08;0.60;;;0.60;;
70588;SDS011;58152;49.202;18.744;2023-04-15T01:35:35;0.50;;;0.50;;
70588;SDS011;58152;49.202;18.744;2023-04-15T01:38:04;0.70;;;0.70;;
70588;SDS011;58152;49.202;18.744;2023-04-15T01:40:31;0.80;;;0.80;;
70588;SDS011;58152;49.202;18.744;2023-04-15T01:42:57;0.90;;;0.60;;
70588;SDS011;58152;49.202;18.744;2023-04-15T01:45:23;0.60;;;0.60;;
70588;SDS011;58152;49.202;18.744;2023-04-15T01:47:49;0.60;;;0.60;;
70588;SDS011;58152;49.202;18.744;2023-04-15T01:50:14;0.63;;;0.63;;
70588;SDS011;58152;49.202;18.744;2023-04-15T01:52:40;0.57;;;0.57;;
70588;SDS011;58152;49.202;18.744;2023-04-15T01:55:06;0.70;;;0.70;;
70588;SDS011;58152;49.202;18.744;2023-04-15T01:57:36;0.68;;;0.68;;
70588;SDS011;58152;49.202;18.744;2023-04-15T02:00:04;0.60;;;0.60;;
70588;SDS011;58152;49.202;18.744;2023-04-15T02:02:38;0.68;;;0.68;;
70588;SDS011;58152;49.202;18.744;2023-04-15T02:05:04;0.70;;;0.70;;
70588;SDS011;58152;49.202;18.744;2023-04-15T02:07:33;0.63;;;0.63;;
70588;SDS011;58152;49.202;18.744;2023-04-15T02:23:35;0.82;;;0.70;;
70588;SDS011;58152;49.202;18.744;2023-04-15T02:29:39;0.55;;;0.55;;
70588;SDS011;58152;49.202;18.744;2023-04-15T02:32:10;0.63;;;0.50;;
70588;SDS011;58152;49.202;18.744;2023-04-15T02:34:41;0.75;;;0.63;;
70588;SDS011;58152;49.202;18.744;2023-04-15T02:37:10;0.60;;;0.60;;
70588;SDS011;58152;49.202;18.744;2023-04-15T02:39:36;0.60;;;0.60;;
70588;SDS011;58152;49.202;18.744;2023-04-15T02:42:03;1.23;;;0.60;;
70588;SDS011;58152;49.202;18.744;2023-04-15T02:48:03;0.80;;;0.80;;
70588;SDS011;58152;49.202;18.744;2023-04-15T02:54:50;0.52;;;0.52;;
70588;SDS011;58152;49.202;18.744;2023-04-15T02:58:03;0.50;;;0.50;;
70588;SDS011;58152;49.202;18.744;2023-04-15T03:04:09;0.60;;;0.60;;
70588;SDS011;58152;49.202;18.744;2023-04-15T03:06:34;0.90;;;0.70;;
70588;SDS011;58152;49.202;18.744;2023-04-15T03:09:00;0.60;;;0.60;;
70588;SDS011;58152;49.202;18.744;2023-04-15T03:11:27;0.50;;;0.50;;
70588;SDS011;58152;49.202;18.744;2023-04-15T03:24:04;0.70;;;0.60;;
70588;SDS011;58152;49.202;18.744;2023-04-15T03:26:52;0.80;;;0.80;;
70588;SDS011;58152;49.202;18.744;2023-04-15T03:29:19;1.05;;;0.70;;
70588;SDS011;58152;49.202;18.744;2023-04-15T03:31:47;0.70;;;0.70;;
70588;SDS011;58152;49.202;18.744;2023-04-15T03:37:38;0.55;;;0.50;;
70588;SDS011;58152;49.202;18.744;2023-04-15T03:40:06;0.60;;;0.60;;
70588;SDS011;58152;49.202;18.744;2023-04-15T03:42:32;0.63;;;0.63;;
70588;SDS011;58152;49.202;18.744;2023-04-15T03:45:07;0.65;;;0.65;;
70588;SDS011;58152;49.202;18.744;2023-04-15T03:47:32;0.60;;;0.60;;
70588;SDS011;58152;49.202;18.744;2023-04-15T03:49:58;0.70;;;0.60;;
70588;SDS011;58152;49.202;18.744;2023-04-15T03:52:24;0.80;;;0.60;;
70588;SDS011;58152;49.202;18.744;2023-04-15T03:54:50;0.60;;;0.60;;
70588;SDS011;58152;49.202;18.744;2023-04-15T03:57:16;0.70;;;0.60;;
70588;SDS011;58152;49.202;18.744;2023-04-15T03:59:44;0.70;;;0.70;;
70588;SDS011;58152;49.202;18.744;2023-04-15T04:02:13;0.70;;;0.70;;
70588;SDS011;58152;49.202;18.744;2023-04-15T04:04:41;1.05;;;0.80;;
70588;SDS011;58152;49.202;18.744;2023-04-15T04:07:07;0.55;;;0.55;;
70588;SDS011;58152;49.202;18.744;2023-04-15T04:09:42;0.50;;;0.50;;
70588;SDS011;58152;49.202;18.744;2023-04-15T04:12:13;0.60;;;0.60;;
70588;SDS011;58152;49.202;18.744;2023-04-15T04:14:40;0.68;;;0.57;;
70588;SDS011;58152;49.202;18.744;2023-04-15T04:17:06;0.88;;;0.75;;
70588;SDS011;58152;49.202;18.744;2023-04-15T04:19:35;1.02;;;0.93;;
70588;SDS011;58152;49.202;18.744;2023-04-15T04:22:01;1.23;;;0.90;;
70588;SDS011;58152;49.202;18.744;2023-04-15T04:24:26;0.82;;;0.70;;
70588;SDS011;58152;49.202;18.744;2023-04-15T04:26:52;0.80;;;0.80;;
70588;SDS011;58152;49.202;18.744;2023-04-15T04:29:17;0.90;;;0.90;;
70588;SDS011;58152;49.202;18.744;2023-04-15T04:31:42;0.90;;;0.90;;
70588;SDS011;58152;49.202;18.744;2023-04-15T04:34:08;1.48;;;1.20;;
70588;SDS011;58152;49.202;18.744;2023-04-15T04:36:33;0.70;;;0.70;;
70588;SDS011;58152;49.202;18.744;2023-04-15T04:38:59;0.70;;;0.70;;
70588;SDS011;58152;49.202;18.744;2023-04-15T04:41:26;0.70;;;0.70;;
70588;SDS011;58152;49.202;18.744;2023-04-15T04:43:52;0.70;;;0.70;;
70588;SDS011;58152;49.202;18.744;2023-04-15T04:46:17;0.70;;;0.70;;
70588;SDS011;58152;49.202;18.744;2023-04-15T04:48:43;0.70;;;0.70;;
70588;SDS011;58152;49.202;18.744;2023-04-15T04:51:08;1.42;;;0.60;;
70588;SDS011;58152;49.202;18.744;2023-04-15T04:53:38;0.82;;;0.55;;
70588;SDS011;58152;49.202;18.744;2023-04-15T04:56:04;0.60;;;0.60;;
70588;SDS011;58152;49.202;18.744;2023-04-15T04:58:30;0.50;;;0.50;;
70588;SDS011;58152;49.202;18.744;2023-04-15T05:00:55;0.63;;;0.50;;
70588;SDS011;58152;49.202;18.744;2023-04-15T05:03:21;1.60;;;0.65;;
70588;SDS011;58152;49.202;18.744;2023-04-15T05:05:46;0.88;;;0.77;;
70588;SDS011;58152;49.202;18.744;2023-04-15T05:08:13;0.70;;;0.50;;
70588;SDS011;58152;49.202;18.744;2023-04-15T05:10:39;0.60;;;0.60;;
70588;SDS011;58152;49.202;18.744;2023-04-15T05:13:05;0.82;;;0.60;;
70588;SDS011;58152;49.202;18.744;2023-04-15T05:15:32;0.85;;;0.60;;
70588;SDS011;58152;49.202;18.744;2023-04-15T05:18:01;0.60;;;0.60;;
70588;SDS011;58152;49.202;18.744;2023-04-15T05:20:29;1.05;;;0.60;;
70588;SDS011;58152;49.202;18.744;2023-04-15T05:22:54;0.60;;;0.60;;
70588;SDS011;58152;49.202;18.744;2023-04-15T05:25:20;0.50;;;0.50;;
70588;SDS011;58152;49.202;18.744;2023-04-15T05:27:46;0.40;;;0.40;;
70588;SDS011;58152;49.202;18.744;2023-04-15T05:30:11;0.65;;;0.65;;
70588;SDS011;58152;49.202;18.744;2023-04-15T05:32:37;0.52;;;0.52;;
70588;SDS011;58152;49.202;18.744;2023-04-15T05:35:02;1.00;;;0.55;;
70588;SDS011;58152;49.202;18.744;2023-04-15T05:37:30;0.60;;;0.60;;
70588;SDS011;58152;49.202;18.744;2023-04-15T05:39:56;0.82;;;0.60;;
70588;SDS011;58152;49.202;18.744;2023-04-15T05:42:21;0.63;;;0.40;;
70588;SDS011;58152;49.202;18.744;2023-04-15T05:44:47;0.50;;;0.50;;
70588;SDS011;58152;49.202;18.744;2023-04-15T05:47:20;0.50;;;0.50;;
70588;SDS011;58152;49.202;18.744;2023-04-15T05:49:45;0.50;;;0.50;;
70588;SDS011;58152;49.202;18.744;2023-04-15T05:52:11;0.55;;;0.55;;
70588;SDS011;58152;49.202;18.744;2023-04-15T05:54:36;0.50;;;0.50;;
70588;SDS011;58152;49.202;18.744;2023-04-15T05:57:02;0.85;;;0.50;;
70588;SDS011;58152;49.202;18.744;2023-04-15T05:59:28;0.50;;;0.50;;
70588;SDS011;58152;49.202;18.744;2023-04-15T06:01:53;0.57;;;0.50;;
70588;SDS011;58152;49.202;18.744;2023-04-15T06:04:19;0.50;;;0.50;;
70588;SDS011;58152;49.202;18.744;2023-04-15T06:06:44;0.40;;;0.40;;
70588;SDS011;58152;49.202;18.744;2023-04-15T06:09:10;0.80;;;0.60;;
70588;SDS011;58152;49.202;18.744;2023-04-15T06:11:35;0.63;;;0.57;;
70588;SDS011;58152;49.202;18.744;2023-04-15T06:14:01;0.40;;;0.40;;
70588;SDS011;58152;49.202;18.744;2023-04-15T06:16:26;0.70;;;0.70;;
70588;SDS011;58152;49.202;18.744;2023-04-15T06:18:52;0.55;;;0.52;;
70588;SDS011;58152;49.202;18.744;2023-04-15T06:21:17;0.68;;;0.68;;
70588;SDS011;58152;49.202;18.744;2023-04-15T06:23:43;1.17;;;0.50;;
70588;SDS011;58152;49.202;18.744;2023-04-15T06:26:09;0.52;;;0.52;;
70588;SDS011;58152;49.202;18.744;2023-04-15T06:28:34;0.40;;;0.40;;
70588;SDS011;58152;49.202;18.744;2023-04-15T06:31:00;0.40;;;0.40;;
70588;SDS011;58152;49.202;18.744;2023-04-15T06:33:26;0.75;;;0.60;;
70588;SDS011;58152;49.202;18.744;2023-04-15T06:35:51;0.70;;;0.63;;
70588;SDS011;58152;49.202;18.744;2023-04-15T06:38:17;0.90;;;0.60;;
70588;SDS011;58152;49.202;18.744;2023-04-15T06:40:43;0.60;;;0.60;;
70588;SDS011;58152;49.202;18.744;2023-04-15T06:43:15;0.95;;;0.60;;
70588;SDS011;58152;49.202;18.744;2023-04-15T06:45:47;0.65;;;0.60;;
70588;SDS011;58152;49.202;18.744;2023-04-15T06:48:13;0.50;;;0.50;;
70588;SDS011;58152;49.202;18.744;2023-04-15T06:50:38;1.77;;;0.70;;
70588;SDS011;58152;49.202;18.744;2023-04-15T06:53:04;0.63;;;0.60;;
70588;SDS011;58152;49.202;18.744;2023-04-15T06:55:29;0.77;;;0.70;;
70588;SDS011;58152;49.202;18.744;2023-04-15T06:57:55;0.50;;;0.50;;
70588;SDS011;58152;49.202;18.744;2023-04-15T07:00:21;0.40;;;0.40;;
70588;SDS011;58152;49.202;18.744;2023-04-15T07:02:46;0.68;;;0.65;;
70588;SDS011;58152;49.202;18.744;2023-04-15T07:05:12;0.50;;;0.50;;
70588;SDS011;58152;49.202;18.744;2023-04-15T07:07:37;0.50;;;0.50;;
70588;SDS011;58152;49.202;18.744;2023-04-15T07:10:02;0.70;;;0.50;;
70588;SDS011;58152;49.202;18.744;2023-04-15T07:12:29;0.50;;;0.50;;
70588;SDS011;58152;49.202;18.744;2023-04-15T07:14:55;1.17;;;0.50;;
70588;SDS011;58152;49.202;18.744;2023-04-15T07:17:20;1.13;;;0.50;;
70588;SDS011;58152;49.202;18.744;2023-04-15T07:19:46;0.88;;;0.60;;
70588;SDS011;58152;49.202;18.744;2023-04-15T07:22:11;0.50;;;0.50;;
70588;SDS011;58152;49.202;18.744;2023-04-15T07:24:37;0.50;;;0.50;;
70588;SDS011;58152;49.202;18.744;2023-04-15T07:27:02;0.57;;;0.57;;
70588;SDS011;58152;49.202;18.744;2023-04-15T07:29:28;1.35;;;0.50;;
70588;SDS011;58152;49.202;18.744;2023-04-15T07:31:56;0.50;;;0.50;;
70588;SDS011;58152;49.202;18.744;2023-04-15T07:34:24;1.60;;;0.80;;
70588;SDS011;58152;49.202;18.744;2023-04-15T07:36:49;2.05;;;1.30;;
70588;SDS011;58152;49.202;18.744;2023-04-15T07:39:16;1.30;;;0.88;;
70588;SDS011;58152;49.202;18.744;2023-04-15T07:41:42;1.00;;;0.90;;
70588;SDS011;58152;49.202;18.744;2023-04-15T07:44:08;0.95;;;0.85;;
70588;SDS011;58152;49.202;18.744;2023-04-15T07:46:33;1.20;;;0.80;;
70588;SDS011;58152;49.202;18.744;2023-04-15T07:48:59;0.82;;;0.75;;
70588;SDS011;58152;49.202;18.744;2023-04-15T07:51:25;0.68;;;0.60;;
70588;SDS011;58152;49.202;18.744;2023-04-15T07:53:50;0.60;;;0.60;;
70588;SDS011;58152;49.202;18.744;2023-04-15T07:56:16;1.52;;;0.60;;
70588;SDS011;58152;49.202;18.744;2023-04-15T07:58:41;0.70;;;0.70;;
70588;SDS011;58152;49.202;18.744;2023-04-15T08:01:07;0.80;;;0.80;;
70588;SDS011;58152;49.202;18.744;2023-04-15T08:03:33;2.05;;;1.08;;
70588;SDS011;58152;49.202;18.744;2023-04-15T08:05:58;1.00;;;0.90;;
70588;SDS011;58152;49.202;18.744;2023-04-15T08:08:24;1.05;;;0.80;;
70588;SDS011;58152;49.202;18.744;2023-04-15T08:10:50;0.90;;;0.90;;
70588;SDS011;58152;49.202;18.744;2023-04-15T08:13:17;1.70;;;1.20;;
70588;SDS011;58152;49.202;18.744;2023-04-15T08:15:43;1.05;;;0.98;;
70588;SDS011;58152;49.202;18.744;2023-04-15T08:18:09;0.80;;;0.80;;
70588;SDS011;58152;49.202;18.744;2023-04-15T08:20:35;1.40;;;0.80;;
70588;SDS011;58152;49.202;18.744;2023-04-15T08:23:01;0.82;;;0.82;;
70588;SDS011;58152;49.202;18.744;2023-04-15T08:25:27;0.82;;;0.70;;
70588;SDS011;58152;49.202;18.744;2023-04-15T08:27:56;1.35;;;0.82;;
70588;SDS011;58152;49.202;18.744;2023-04-15T08:30:22;1.17;;;1.10;;
70588;SDS011;58152;49.202;18.744;2023-04-15T08:32:49;1.08;;;0.98;;
70588;SDS011;58152;49.202;18.744;2023-04-15T08:35:15;1.00;;;1.00;;
70588;SDS011;58152;49.202;18.744;2023-04-15T08:37:41;0.90;;;0.90;;
70588;SDS011;58152;49.202;18.744;2023-04-15T08:40:08;0.85;;;0.85;;
70588;SDS011;58152;49.202;18.744;2023-04-15T08:42:43;1.20;;;1.10;;
70588;SDS011;58152;49.202;18.744;2023-04-15T08:45:12;1.05;;;1.00;;
70588;SDS011;58152;49.202;18.744;2023-04-15T08:47:38;1.25;;;1.15;;
70588;SDS011;58152;49.202;18.744;2023-04-15T08:50:04;1.13;;;1.00;;
70588;SDS011;58152;49.202;18.744;2023-04-15T08:52:33;1.10;;;1.00;;
70588;SDS011;58152;49.202;18.744;2023-04-15T08:54:59;1.20;;;1.10;;
70588;SDS011;58152;49.202;18.744;2023-04-15T08:57:30;1.42;;;1.10;;
70588;SDS011;58152;49.202;18.744;2023-04-15T09:00:01;1.55;;;1.17;;
70588;SDS011;58152;49.202;18.744;2023-04-15T09:02:28;1.30;;;1.20;;
70588;SDS011;58152;49.202;18.744;2023-04-15T09:04:53;1.60;;;1.45;;
70588;SDS011;58152;49.202;18.744;2023-04-15T09:07:19;1.40;;;1.30;;
70588;SDS011;58152;49.202;18.744;2023-04-15T09:09:47;1.20;;;1.10;;
70588;SDS011;58152;49.202;18.744;2023-04-15T09:12:13;1.30;;;1.20;;
70588;SDS011;58152;49.202;18.744;2023-04-15T09:14:39;1.25;;;1.15;;
70588;SDS011;58152;49.202;18.744;2023-04-15T09:17:04;0.93;;;0.93;;
70588;SDS011;58152;49.202;18.744;2023-04-15T09:19:39;1.15;;;1.10;;
70588;SDS011;58152;49.202;18.744;2023-04-15T09:22:10;1.50;;;1.40;;
70588;SDS011;58152;49.202;18.744;2023-04-15T09:24:40;1.30;;;1.17;;
70588;SDS011;58152;49.202;18.744;2023-04-15T09:27:35;1.40;;;1.25;;
70588;SDS011;58152;49.202;18.744;2023-04-15T09:30:12;1.30;;;1.20;;
70588;SDS011;58152;49.202;18.744;2023-04-15T09:32:52;1.50;;;1.40;;
70588;SDS011;58152;49.202;18.744;2023-04-15T09:35:39;1.10;;;1.00;;
70588;SDS011;58152;49.202;18.744;2023-04-15T09:38:06;1.38;;;1.27;;
70588;SDS011;58152;49.202;18.744;2023-04-15T09:40:37;1.20;;;1.10;;
70588;SDS011;58152;49.202;18.744;2023-04-15T09:43:05;2.08;;;1.50;;
70588;SDS011;58152;49.202;18.744;2023-04-15T09:45:32;1.40;;;1.30;;
70588;SDS011;58152;49.202;18.744;2023-04-15T09:47:59;1.52;;;1.42;;
70588;SDS011;58152;49.202;18.744;2023-04-15T09:50:42;1.60;;;1.45;;
70588;SDS011;58152;49.202;18.744;2023-04-15T09:53:14;1.77;;;1.63;;
70588;SDS011;58152;49.202;18.744;2023-04-15T09:56:00;2.10;;;1.73;;
70588;SDS011;58152;49.202;18.744;2023-04-15T09:58:27;1.95;;;1.83;;
70588;SDS011;58152;49.202;18.744;2023-04-15T10:00:57;1.38;;;1.27;;
70588;SDS011;58152;49.202;18.744;2023-04-15T10:03:24;31.38;;;22.40;;
70588;SDS011;58152;49.202;18.744;2023-04-15T10:05:56;24.50;;;15.73;;
70588;SDS011;58152;49.202;18.744;2023-04-15T10:08:24;70.22;;;31.13;;
70588;SDS011;58152;49.202;18.744;2023-04-15T10:10:51;31.83;;;13.77;;
70588;SDS011;58152;49.202;18.744;2023-04-15T10:13:18;10.93;;;6.07;;
70588;SDS011;58152;49.202;18.744;2023-04-15T10:15:49;3.72;;;2.47;;
70588;SDS011;58152;49.202;18.744;2023-04-15T10:18:19;2.35;;;1.63;;
70588;SDS011;58152;49.202;18.744;2023-04-15T10:20:47;3.17;;;1.10;;
70588;SDS011;58152;49.202;18.744;2023-04-15T10:23:13;0.98;;;0.98;;
70588;SDS011;58152;49.202;18.744;2023-04-15T10:25:45;0.80;;;0.80;;
70588;SDS011;58152;49.202;18.744;2023-04-15T10:28:11;2.90;;;0.80;;
70588;SDS011;58152;49.202;18.744;2023-04-15T10:30:38;0.95;;;0.95;;
70588;SDS011;58152;49.202;18.744;2023-04-15T10:33:06;2.00;;;0.90;;
70588;SDS011;58152;49.202;18.744;2023-04-15T10:35:34;1.70;;;0.90;;
70588;SDS011;58152;49.202;18.744;2023-04-15T10:38:00;1.33;;;0.82;;
70588;SDS011;58152;49.202;18.744;2023-04-15T10:40:30;1.10;;;0.98;;
70588;SDS011;58152;49.202;18.744;2023-04-15T10:42:59;0.63;;;0.63;;
70588;SDS011;58152;49.202;18.744;2023-04-15T10:45:33;0.70;;;0.70;;
70588;SDS011;58152;49.202;18.744;2023-04-15T10:48:04;1.27;;;0.90;;
70588;SDS011;58152;49.202;18.744;2023-04-15T10:50:32;1.00;;;0.90;;
70588;SDS011;58152;49.202;18.744;2023-04-15T10:52:58;1.08;;;0.90;;
70588;SDS011;58152;49.202;18.744;2023-04-15T10:55:26;1.00;;;0.90;;
70588;SDS011;58152;49.202;18.744;2023-04-15T10:57:57;0.90;;;0.90;;
70588;SDS011;58152;49.202;18.744;2023-04-15T11:00:32;0.52;;;0.52;;
70588;SDS011;58152;49.202;18.744;2023-04-15T11:03:05;0.70;;;0.63;;
70588;SDS011;58152;49.202;18.744;2023-04-15T11:08:03;0.70;;;0.70;;
70588;SDS011;58152;49.202;18.744;2023-04-15T11:15:46;1.00;;;1.00;;
70588;SDS011;58152;49.202;18.744;2023-04-15T11:18:23;1.90;;;0.90;;
70588;SDS011;58152;49.202;18.744;2023-04-15T11:24:04;0.77;;;0.77;;
70588;SDS011;58152;49.202;18.744;2023-04-15T11:26:32;1.17;;;1.05;;
70588;SDS011;58152;49.202;18.744;2023-04-15T11:29:00;1.73;;;1.00;;
70588;SDS011;58152;49.202;18.744;2023-04-15T11:31:26;0.70;;;0.70;;
70588;SDS011;58152;49.202;18.744;2023-04-15T11:33:54;1.15;;;0.80;;
70588;SDS011;58152;49.202;18.744;2023-04-15T11:36:21;1.38;;;0.60;;
70588;SDS011;58152;49.202;18.744;2023-04-15T11:38:48;0.60;;;0.60;;
70588;SDS011;58152;49.202;18.744;2023-04-15T11:41:14;1.15;;;0.90;;
70588;SDS011;58152;49.202;18.744;2023-04-15T11:43:44;1.00;;;0.90;;
70588;SDS011;58152;49.202;18.744;2023-04-15T11:46:10;1.13;;;0.90;;
70588;SDS011;58152;49.202;18.744;2023-04-15T11:48:41;1.23;;;1.00;;
70588;SDS011;58152;49.202;18.744;2023-04-15T11:51:11;2.40;;;1.23;;
70588;SDS011;58152;49.202;18.744;2023-04-15T11:53:47;1.52;;;1.20;;
70588;SDS011;58152;49.202;18.744;2023-04-15T11:56:23;1.40;;;1.30;;
70588;SDS011;58152;49.202;18.744;2023-04-15T11:58:53;0.80;;;0.80;;
70588;SDS011;58152;49.202;18.744;2023-04-15T12:01:32;0.65;;;0.63;;
70588;SDS011;58152;49.202;18.744;2023-04-15T12:04:10;1.47;;;0.70;;
70588;SDS011;58152;49.202;18.744;2023-04-15T12:06:47;0.65;;;0.65;;
70588;SDS011;58152;49.202;18.744;2023-04-15T12:09:34;0.80;;;0.80;;
70588;SDS011;58152;49.202;18.744;2023-04-15T12:12:02;0.60;;;0.60;;
70588;SDS011;58152;49.202;18.744;2023-04-15T12:14:50;0.73;;;0.60;;
70588;SDS011;58152;49.202;18.744;2023-04-15T12:17:16;0.98;;;0.77;;
70588;SDS011;58152;49.202;18.744;2023-04-15T12:19:47;1.25;;;0.70;;
70588;SDS011;58152;49.202;18.744;2023-04-15T12:22:15;1.05;;;0.80;;
70588;SDS011;58152;49.202;18.744;2023-04-15T12:24:42;1.55;;;0.85;;
70588;SDS011;58152;49.202;18.744;2023-04-15T12:27:14;1.00;;;0.80;;
70588;SDS011;58152;49.202;18.744;2023-04-15T12:30:04;1.20;;;0.85;;
70588;SDS011;58152;49.202;18.744;2023-04-15T12:32:33;0.70;;;0.70;;
70588;SDS011;58152;49.202;18.744;2023-04-15T12:35:10;0.93;;;0.82;;
70588;SDS011;58152;49.202;18.744;2023-04-15T12:37:42;2.40;;;1.88;;
70588;SDS011;58152;49.202;18.744;2023-04-15T12:40:07;1.73;;;1.60;;
70588;SDS011;58152;49.202;18.744;2023-04-15T12:42:35;1.13;;;1.00;;
70588;SDS011;58152;49.202;18.744;2023-04-15T12:45:07;0.90;;;0.80;;
70588;SDS011;58152;49.202;18.744;2023-04-15T12:50:43;0.75;;;0.60;;
70588;SDS011;58152;49.202;18.744;2023-04-15T12:53:36;1.23;;;0.57;;
70588;SDS011;58152;49.202;18.744;2023-04-15T12:56:02;0.50;;;0.50;;
70588;SDS011;58152;49.202;18.744;2023-04-15T12:58:34;0.70;;;0.70;;
70588;SDS011;58152;49.202;18.744;2023-04-15T13:04:55;0.95;;;0.70;;
70588;SDS011;58152;49.202;18.744;2023-04-15T13:08:08;1.35;;;1.23;;
70588;SDS011;58152;49.202;18.744;2023-04-15T13:10:34;0.90;;;0.63;;
70588;SDS011;58152;49.202;18.744;2023-04-15T13:13:02;0.68;;;0.68;;
70588;SDS011;58152;49.202;18.744;2023-04-15T13:15:31;0.80;;;0.77;;
70588;SDS011;58152;49.202;18.744;2023-04-15T13:21:20;0.63;;;0.50;;
70588;SDS011;58152;49.202;18.744;2023-04-15T13:23:47;1.58;;;1.13;;
70588;SDS011;58152;49.202;18.744;2023-04-15T13:26:15;0.60;;;0.57;;
70588;SDS011;58152;49.202;18.744;2023-04-15T13:28:46;1.17;;;0.93;;
70588;SDS011;58152;49.202;18.744;2023-04-15T13:31:14;1.35;;;0.90;;
70588;SDS011;58152;49.202;18.744;2023-04-15T13:34:09;3.00;;;1.35;;
70588;SDS011;58152;49.202;18.744;2023-04-15T13:36:44;3.17;;;1.52;;
70588;SDS011;58152;49.202;18.744;2023-04-15T13:39:18;1.60;;;1.27;;
70588;SDS011;58152;49.202;18.744;2023-04-15T13:41:44;2.80;;;1.17;;
70588;SDS011;58152;49.202;18.744;2023-04-15T13:44:12;1.58;;;1.13;;
70588;SDS011;58152;49.202;18.744;2023-04-15T13:46:38;1.30;;;0.93;;
70588;SDS011;58152;49.202;18.744;2023-04-15T13:49:09;0.70;;;0.60;;
70588;SDS011;58152;49.202;18.744;2023-04-15T13:54:32;1.88;;;1.75;;
70588;SDS011;58152;49.202;18.744;2023-04-15T13:57:16;1.50;;;1.10;;
70588;SDS011;58152;49.202;18.744;2023-04-15T13:59:53;0.60;;;0.52;;
70588;SDS011;58152;49.202;18.744;2023-04-15T14:02:24;1.08;;;0.98;;
70588;SDS011;58152;49.202;18.744;2023-04-15T14:04:59;0.63;;;0.63;;
70588;SDS011;58152;49.202;18.744;2023-04-15T14:07:33;0.45;;;0.45;;
70588;SDS011;58152;49.202;18.744;2023-04-15T14:13:57;0.47;;;0.40;;
70588;SDS011;58152;49.202;18.744;2023-04-15T14:19:44;0.40;;;0.40;;
70588;SDS011;58152;49.202;18.744;2023-04-15T14:22:10;0.82;;;0.40;;
70588;SDS011;58152;49.202;18.744;2023-04-15T14:24:36;0.40;;;0.30;;
70588;SDS011;58152;49.202;18.744;2023-04-15T14:27:01;0.30;;;0.30;;
70588;SDS011;58152;49.202;18.744;2023-04-15T14:29:27;0.50;;;0.50;;
70588;SDS011;58152;49.202;18.744;2023-04-15T14:31:53;0.45;;;0.40;;
70588;SDS011;58152;49.202;18.744;2023-04-15T14:34:21;0.93;;;0.32;;
70588;SDS011;58152;49.202;18.744;2023-04-15T14:36:49;0.40;;;0.40;;
70588;SDS011;58152;49.202;18.744;2023-04-15T14:39:18;0.30;;;0.30;;
70588;SDS011;58152;49.202;18.744;2023-04-15T14:41:45;0.90;;;0.55;;
70588;SDS011;58152;49.202;18.744;2023-04-15T14:44:11;0.68;;;0.40;;
70588;SDS011;58152;49.202;18.744;2023-04-15T14:46:39;0.93;;;0.57;;
70588;SDS011;58152;49.202;18.744;2023-04-15T14:49:07;0.60;;;0.43;;
70588;SDS011;58152;49.202;18.744;2023-04-15T14:51:33;0.40;;;0.40;;
70588;SDS011;58152;49.202;18.744;2023-04-15T14:54:39;0.30;;;0.30;;
70588;SDS011;58152;49.202;18.744;2023-04-15T14:57:04;0.32;;;0.30;;
70588;SDS011;58152;49.202;18.744;2023-04-15T14:59:30;0.40;;;0.40;;
70588;SDS011;58152;49.202;18.744;2023-04-15T15:01:57;0.40;;;0.40;;
70588;SDS011;58152;49.202;18.744;2023-04-15T15:04:23;0.43;;;0.40;;
70588;SDS011;58152;49.202;18.744;2023-04-15T15:06:49;0.30;;;0.30;;
70588;SDS011;58152;49.202;18.744;2023-04-15T15:09:14;0.30;;;0.30;;
70588;SDS011;58152;49.202;18.744;2023-04-15T15:11:40;0.30;;;0.30;;
70588;SDS011;58152;49.202;18.744;2023-04-15T15:14:05;0.60;;;0.30;;
70588;SDS011;58152;49.202;18.744;2023-04-15T15:16:31;0.25;;;0.25;;
70588;SDS011;58152;49.202;18.744;2023-04-15T15:18:56;0.55;;;0.40;;
70588;SDS011;58152;49.202;18.744;2023-04-15T15:21:21;0.70;;;0.40;;
70588;SDS011;58152;49.202;18.744;2023-04-15T15:23:50;0.30;;;0.30;;
70588;SDS011;58152;49.202;18.744;2023-04-15T15:26:15;0.65;;;0.30;;
70588;SDS011;58152;49.202;18.744;2023-04-15T15:28:43;0.30;;;0.30;;
70588;SDS011;58152;49.202;18.744;2023-04-15T15:31:09;0.43;;;0.43;;
70588;SDS011;58152;49.202;18.744;2023-04-15T15:33:34;0.50;;;0.50;;
70588;SDS011;58152;49.202;18.744;2023-04-15T15:36:00;0.60;;;0.50;;
70588;SDS011;58152;49.202;18.744;2023-04-15T15:38:26;1.50;;;0.68;;
70588;SDS011;58152;49.202;18.744;2023-04-15T15:40:52;0.90;;;0.70;;
70588;SDS011;58152;49.202;18.744;2023-04-15T15:43:17;0.90;;;0.52;;
70588;SDS011;58152;49.202;18.744;2023-04-15T15:45:43;1.02;;;0.57;;
70588;SDS011;58152;49.202;18.744;2023-04-15T15:48:08;0.60;;;0.52;;
70588;SDS011;58152;49.202;18.744;2023-04-15T15:50:34;1.05;;;0.75;;
70588;SDS011;58152;49.202;18.744;2023-04-15T15:53:02;0.65;;;0.60;;
70588;SDS011;58152;49.202;18.744;2023-04-15T15:55:27;0.47;;;0.40;;
70588;SDS011;58152;49.202;18.744;2023-04-15T15:57:53;0.40;;;0.40;;
70588;SDS011;58152;49.202;18.744;2023-04-15T16:00:18;0.50;;;0.47;;
70588;SDS011;58152;49.202;18.744;2023-04-15T16:02:43;0.68;;;0.47;;
70588;SDS011;58152;49.202;18.744;2023-04-15T16:05:09;0.85;;;0.60;;
70588;SDS011;58152;49.202;18.744;2023-04-15T16:07:35;0.57;;;0.52;;
70588;SDS011;58152;49.202;18.744;2023-04-15T16:10:00;0.65;;;0.52;;
70588;SDS011;58152;49.202;18.744;2023-04-15T16:12:26;0.40;;;0.30;;
70588;SDS011;58152;49.202;18.744;2023-04-15T16:14:51;0.98;;;0.50;;
70588;SDS011;58152;49.202;18.744;2023-04-15T16:17:17;1.95;;;0.60;;
70588;SDS011;58152;49.202;18.744;2023-04-15T16:19:44;0.45;;;0.45;;
70588;SDS011;58152;49.202;18.744;2023-04-15T16:22:09;1.17;;;0.40;;
70588;SDS011;58152;49.202;18.744;2023-04-15T16:24:35;0.63;;;0.50;;
70588;SDS011;58152;49.202;18.744;2023-04-15T16:27:08;0.73;;;0.60;;
70588;SDS011;58152;49.202;18.744;2023-04-15T16:29:38;0.80;;;0.60;;
70588;SDS011;58152;49.202;18.744;2023-04-15T16:32:05;0.45;;;0.45;;
70588;SDS011;58152;49.202;18.744;2023-04-15T16:34:31;0.70;;;0.60;;
70588;SDS011;58152;49.202;18.744;2023-04-15T16:36:56;0.93;;;0.60;;
70588;SDS011;58152;49.202;18.744;2023-04-15T16:39:22;0.52;;;0.40;;
70588;SDS011;58152;49.202;18.744;2023-04-15T16:41:48;0.50;;;0.50;;
70588;SDS011;58152;49.202;18.744;2023-04-15T16:44:19;0.73;;;0.73;;
70588;SDS011;58152;49.202;18.744;2023-04-15T16:46:52;1.23;;;0.80;;